sensor_id;sensor_type;location;lat;lon;timestamp;P1;durP1;ratioP1;P2;durP2;ratioP2
6495;SDS011;3281;47.658;9.166;2023-04-06T00:02:16;0.40;;;0.40;;
6495;SDS011;3281;47.658;9.166;2023-04-06T00:04:44;0.30;;;0.30;;
6495;SDS011;3281;47.658;9.166;2023-04-06T00:07:11;0.30;;;0.30;;
6495;SDS011;3281;47.658;9.166;2023-04-06T00:09:37;0.30;;;0.30;;
6495;SDS011;3281;47.658;9.166;2023-04-06T00:12:04;0.30;;;0.30;;
6495;SDS011;3281;47.658;9.166;2023-04-06T00:14:32;0.30;;;0.30;;
6495;SDS011;3281;47.658;9.166;2023-04-06T00:16:58;0.20;;;0.20;;
6495;SDS011;3281;47.658;9.166;2023-04-06T00:19:25;0.30;;;0.30;;
6495;SDS011;3281;47.658;9.166;2023-04-06T00:21:53;0.30;;;0.30;;
6495;SDS011;3281;47.658;9.166;2023-04-06T00:24:20;0.30;;;0.30;;
6495;SDS011;3281;47.658;9.166;2023-04-06T00:26:47;0.30;;;0.30;;
6495;SDS011;3281;47.658;9.166;2023-04-06T00:29:14;0.30;;;0.30;;
6495;SDS011;3281;47.658;9.166;2023-04-06T00:31:41;0.30;;;0.30;;
6495;SDS011;3281;47.658;9.166;2023-04-06T00:34:08;0.30;;;0.30;;
6495;SDS011;3281;47.658;9.166;2023-04-06T00:36:35;0.20;;;0.20;;
6495;SDS011;3281;47.658;9.166;2023-04-06T00:39:03;0.30;;;0.30;;
6495;SDS011;3281;47.658;9.166;2023-04-06T00:41:30;0.20;;;0.20;;
6495;SDS011;3281;47.658;9.166;2023-04-06T00:43:57;0.30;;;0.30;;
6495;SDS011;3281;47.658;9.166;2023-04-06T00:46:24;0.30;;;0.30;;
6495;SDS011;3281;47.658;9.166;2023-04-06T00:48:51;0.30;;;0.30;;
6495;SDS011;3281;47.658;9.166;2023-04-06T00:51:17;0.30;;;0.30;;
6495;SDS011;3281;47.658;9.166;2023-04-06T00:53:44;0.30;;;0.30;;
6495;SDS011;3281;47.658;9.166;2023-04-06T00:56:12;0.30;;;0.30;;
6495;SDS011;3281;47.658;9.166;2023-04-06T00:58:39;0.30;;;0.30;;
6495;SDS011;3281;47.658;9.166;2023-04-06T01:01:06;0.30;;;0.30;;
6495;SDS011;3281;47.658;9.166;2023-04-06T01:03:33;0.27;;;0.27;;
6495;SDS011;3281;47.658;9.166;2023-04-06T01:06:00;0.40;;;0.40;;
6495;SDS011;3281;47.658;9.166;2023-04-06T01:08:27;0.30;;;0.30;;
6495;SDS011;3281;47.658;9.166;2023-04-06T01:10:54;0.30;;;0.30;;
6495;SDS011;3281;47.658;9.166;2023-04-06T01:13:22;0.50;;;0.50;;
6495;SDS011;3281;47.658;9.166;2023-04-06T01:15:49;0.30;;;0.30;;
6495;SDS011;3281;47.658;9.166;2023-04-06T01:18:16;0.30;;;0.30;;
6495;SDS011;3281;47.658;9.166;2023-04-06T01:20:43;0.30;;;0.30;;
6495;SDS011;3281;47.658;9.166;2023-04-06T01:23:11;0.20;;;0.20;;
6495;SDS011;3281;47.658;9.166;2023-04-06T01:25:37;0.30;;;0.30;;
6495;SDS011;3281;47.658;9.166;2023-04-06T01:28:04;0.30;;;0.30;;
6495;SDS011;3281;47.658;9.166;2023-04-06T01:30:31;0.30;;;0.30;;
6495;SDS011;3281;47.658;9.166;2023-04-06T01:32:58;0.40;;;0.40;;
6495;SDS011;3281;47.658;9.166;2023-04-06T01:35:25;0.30;;;0.30;;
6495;SDS011;3281;47.658;9.166;2023-04-06T01:37:53;0.30;;;0.30;;
6495;SDS011;3281;47.658;9.166;2023-04-06T01:40:21;0.30;;;0.30;;
6495;SDS011;3281;47.658;9.166;2023-04-06T01:42:48;0.33;;;0.33;;
6495;SDS011;3281;47.658;9.166;2023-04-06T01:45:15;0.27;;;0.27;;
6495;SDS011;3281;47.658;9.166;2023-04-06T01:47:42;0.33;;;0.33;;
6495;SDS011;3281;47.658;9.166;2023-04-06T01:50:09;0.37;;;0.37;;
6495;SDS011;3281;47.658;9.166;2023-04-06T01:52:36;0.30;;;0.30;;
6495;SDS011;3281;47.658;9.166;2023-04-06T01:55:03;0.40;;;0.40;;
6495;SDS011;3281;47.658;9.166;2023-04-06T01:57:32;0.20;;;0.20;;
6495;SDS011;3281;47.658;9.166;2023-04-06T01:59:59;0.30;;;0.30;;
6495;SDS011;3281;47.658;9.166;2023-04-06T02:02:26;0.40;;;0.40;;
6495;SDS011;3281;47.658;9.166;2023-04-06T02:04:53;0.40;;;0.40;;
6495;SDS011;3281;47.658;9.166;2023-04-06T02:07:21;0.40;;;0.40;;
6495;SDS011;3281;47.658;9.166;2023-04-06T02:09:47;0.30;;;0.30;;
6495;SDS011;3281;47.658;9.166;2023-04-06T02:12:14;0.40;;;0.40;;
6495;SDS011;3281;47.658;9.166;2023-04-06T02:14:42;0.30;;;0.30;;
6495;SDS011;3281;47.658;9.166;2023-04-06T02:17:09;0.40;;;0.40;;
6495;SDS011;3281;47.658;9.166;2023-04-06T02:19:36;0.30;;;0.30;;
6495;SDS011;3281;47.658;9.166;2023-04-06T02:22:03;0.40;;;0.40;;
6495;SDS011;3281;47.658;9.166;2023-04-06T02:24:29;0.40;;;0.40;;
6495;SDS011;3281;47.658;9.166;2023-04-06T02:26:56;0.37;;;0.37;;
6495;SDS011;3281;47.658;9.166;2023-04-06T02:29:23;0.30;;;0.30;;
6495;SDS011;3281;47.658;9.166;2023-04-06T02:31:51;0.30;;;0.30;;
6495;SDS011;3281;47.658;9.166;2023-04-06T02:34:18;0.30;;;0.30;;
6495;SDS011;3281;47.658;9.166;2023-04-06T02:36:45;0.30;;;0.30;;
6495;SDS011;3281;47.658;9.166;2023-04-06T02:39:12;0.30;;;0.30;;
6495;SDS011;3281;47.658;9.166;2023-04-06T02:41:40;0.30;;;0.30;;
6495;SDS011;3281;47.658;9.166;2023-04-06T02:44:07;0.20;;;0.20;;
6495;SDS011;3281;47.658;9.166;2023-04-06T02:46:35;0.30;;;0.30;;
6495;SDS011;3281;47.658;9.166;2023-04-06T02:49:03;0.40;;;0.40;;
6495;SDS011;3281;47.658;9.166;2023-04-06T02:51:29;0.50;;;0.50;;
6495;SDS011;3281;47.658;9.166;2023-04-06T02:53:56;0.40;;;0.40;;
6495;SDS011;3281;47.658;9.166;2023-04-06T02:56:23;0.23;;;0.23;;
6495;SDS011;3281;47.658;9.166;2023-04-06T02:58:51;0.40;;;0.40;;
6495;SDS011;3281;47.658;9.166;2023-04-06T03:01:18;0.30;;;0.30;;
6495;SDS011;3281;47.658;9.166;2023-04-06T03:03:45;0.30;;;0.30;;
6495;SDS011;3281;47.658;9.166;2023-04-06T03:06:13;0.30;;;0.30;;
6495;SDS011;3281;47.658;9.166;2023-04-06T03:08:40;0.30;;;0.30;;
6495;SDS011;3281;47.658;9.166;2023-04-06T03:11:06;0.30;;;0.30;;
6495;SDS011;3281;47.658;9.166;2023-04-06T03:13:33;0.20;;;0.20;;
6495;SDS011;3281;47.658;9.166;2023-04-06T03:16:00;0.40;;;0.40;;
6495;SDS011;3281;47.658;9.166;2023-04-06T03:18:27;0.30;;;0.30;;
6495;SDS011;3281;47.658;9.166;2023-04-06T03:20:54;0.30;;;0.30;;
6495;SDS011;3281;47.658;9.166;2023-04-06T03:23:22;0.30;;;0.30;;
6495;SDS011;3281;47.658;9.166;2023-04-06T03:25:49;0.30;;;0.30;;
6495;SDS011;3281;47.658;9.166;2023-04-06T03:28:15;0.30;;;0.30;;
6495;SDS011;3281;47.658;9.166;2023-04-06T03:30:42;0.30;;;0.30;;
6495;SDS011;3281;47.658;9.166;2023-04-06T03:33:09;0.30;;;0.30;;
6495;SDS011;3281;47.658;9.166;2023-04-06T03:35:36;0.30;;;0.30;;
6495;SDS011;3281;47.658;9.166;2023-04-06T03:38:03;0.33;;;0.33;;
6495;SDS011;3281;47.658;9.166;2023-04-06T03:40:31;0.30;;;0.30;;
6495;SDS011;3281;47.658;9.166;2023-04-06T03:42:58;0.20;;;0.20;;
6495;SDS011;3281;47.658;9.166;2023-04-06T03:45:25;0.23;;;0.23;;
6495;SDS011;3281;47.658;9.166;2023-04-06T03:47:52;0.30;;;0.30;;
6495;SDS011;3281;47.658;9.166;2023-04-06T03:50:18;0.30;;;0.30;;
6495;SDS011;3281;47.658;9.166;2023-04-06T03:52:45;0.40;;;0.40;;
6495;SDS011;3281;47.658;9.166;2023-04-06T03:55:12;0.40;;;0.40;;
6495;SDS011;3281;47.658;9.166;2023-04-06T03:57:40;0.30;;;0.30;;
6495;SDS011;3281;47.658;9.166;2023-04-06T04:00:07;0.30;;;0.30;;
6495;SDS011;3281;47.658;9.166;2023-04-06T04:02:35;0.30;;;0.30;;
6495;SDS011;3281;47.658;9.166;2023-04-06T04:05:02;0.40;;;0.40;;
6495;SDS011;3281;47.658;9.166;2023-04-06T04:07:29;0.30;;;0.30;;
6495;SDS011;3281;47.658;9.166;2023-04-06T04:09:56;0.30;;;0.30;;
6495;SDS011;3281;47.658;9.166;2023-04-06T04:12:23;0.30;;;0.30;;
6495;SDS011;3281;47.658;9.166;2023-04-06T04:14:51;0.30;;;0.30;;
6495;SDS011;3281;47.658;9.166;2023-04-06T04:17:18;0.30;;;0.30;;
6495;SDS011;3281;47.658;9.166;2023-04-06T04:19:45;0.40;;;0.40;;
6495;SDS011;3281;47.658;9.166;2023-04-06T04:22:12;0.30;;;0.30;;
6495;SDS011;3281;47.658;9.166;2023-04-06T04:24:39;0.30;;;0.30;;
6495;SDS011;3281;47.658;9.166;2023-04-06T04:27:06;0.30;;;0.30;;
6495;SDS011;3281;47.658;9.166;2023-04-06T04:29:32;0.40;;;0.40;;
6495;SDS011;3281;47.658;9.166;2023-04-06T04:32:01;0.30;;;0.30;;
6495;SDS011;3281;47.658;9.166;2023-04-06T04:34:28;0.30;;;0.30;;
6495;SDS011;3281;47.658;9.166;2023-04-06T04:36:54;0.40;;;0.40;;
6495;SDS011;3281;47.658;9.166;2023-04-06T04:39:21;0.37;;;0.37;;
6495;SDS011;3281;47.658;9.166;2023-04-06T04:41:48;0.40;;;0.40;;
6495;SDS011;3281;47.658;9.166;2023-04-06T04:44:15;0.30;;;0.30;;
6495;SDS011;3281;47.658;9.166;2023-04-06T04:46:41;0.20;;;0.20;;
6495;SDS011;3281;47.658;9.166;2023-04-06T04:49:10;0.37;;;0.37;;
6495;SDS011;3281;47.658;9.166;2023-04-06T04:51:36;0.30;;;0.30;;
6495;SDS011;3281;47.658;9.166;2023-04-06T04:54:03;0.30;;;0.30;;
6495;SDS011;3281;47.658;9.166;2023-04-06T04:56:30;0.30;;;0.30;;
6495;SDS011;3281;47.658;9.166;2023-04-06T04:58:57;0.30;;;0.30;;
6495;SDS011;3281;47.658;9.166;2023-04-06T05:01:24;0.30;;;0.30;;
6495;SDS011;3281;47.658;9.166;2023-04-06T05:03:50;0.40;;;0.40;;
6495;SDS011;3281;47.658;9.166;2023-04-06T05:06:19;0.30;;;0.30;;
6495;SDS011;3281;47.658;9.166;2023-04-06T05:08:45;0.30;;;0.30;;
6495;SDS011;3281;47.658;9.166;2023-04-06T05:11:12;0.30;;;0.30;;
6495;SDS011;3281;47.658;9.166;2023-04-06T05:13:39;0.40;;;0.40;;
6495;SDS011;3281;47.658;9.166;2023-04-06T05:16:06;0.30;;;0.30;;
6495;SDS011;3281;47.658;9.166;2023-04-06T05:18:33;0.30;;;0.30;;
6495;SDS011;3281;47.658;9.166;2023-04-06T05:21:00;0.30;;;0.30;;
6495;SDS011;3281;47.658;9.166;2023-04-06T05:23:28;0.30;;;0.30;;
6495;SDS011;3281;47.658;9.166;2023-04-06T05:25:55;0.30;;;0.30;;
6495;SDS011;3281;47.658;9.166;2023-04-06T05:28:22;0.30;;;0.30;;
6495;SDS011;3281;47.658;9.166;2023-04-06T05:30:48;0.30;;;0.30;;
6495;SDS011;3281;47.658;9.166;2023-04-06T05:33:16;0.30;;;0.30;;
6495;SDS011;3281;47.658;9.166;2023-04-06T05:35:43;0.30;;;0.30;;
6495;SDS011;3281;47.658;9.166;2023-04-06T05:38:09;0.30;;;0.30;;
6495;SDS011;3281;47.658;9.166;2023-04-06T05:40:38;0.30;;;0.30;;
6495;SDS011;3281;47.658;9.166;2023-04-06T05:43:06;0.20;;;0.20;;
6495;SDS011;3281;47.658;9.166;2023-04-06T05:45:33;0.30;;;0.30;;
6495;SDS011;3281;47.658;9.166;2023-04-06T05:48:00;0.20;;;0.20;;
6495;SDS011;3281;47.658;9.166;2023-04-06T05:50:27;0.30;;;0.30;;
6495;SDS011;3281;47.658;9.166;2023-04-06T05:52:54;0.30;;;0.30;;
6495;SDS011;3281;47.658;9.166;2023-04-06T05:55:21;0.33;;;0.33;;
6495;SDS011;3281;47.658;9.166;2023-04-06T05:57:49;0.30;;;0.30;;
6495;SDS011;3281;47.658;9.166;2023-04-06T06:00:16;0.20;;;0.20;;
6495;SDS011;3281;47.658;9.166;2023-04-06T06:02:43;0.30;;;0.30;;
6495;SDS011;3281;47.658;9.166;2023-04-06T06:05:10;0.30;;;0.30;;
6495;SDS011;3281;47.658;9.166;2023-04-06T06:07:37;0.30;;;0.30;;
6495;SDS011;3281;47.658;9.166;2023-04-06T06:10:04;0.20;;;0.20;;
6495;SDS011;3281;47.658;9.166;2023-04-06T06:12:31;0.20;;;0.20;;
6495;SDS011;3281;47.658;9.166;2023-04-06T06:14:59;0.30;;;0.30;;
6495;SDS011;3281;47.658;9.166;2023-04-06T06:17:26;0.30;;;0.30;;
6495;SDS011;3281;47.658;9.166;2023-04-06T06:19:53;0.30;;;0.30;;
6495;SDS011;3281;47.658;9.166;2023-04-06T06:22:20;0.20;;;0.20;;
6495;SDS011;3281;47.658;9.166;2023-04-06T06:24:47;0.20;;;0.20;;
6495;SDS011;3281;47.658;9.166;2023-04-06T06:27:14;0.30;;;0.30;;
6495;SDS011;3281;47.658;9.166;2023-04-06T06:29:41;0.30;;;0.30;;
6495;SDS011;3281;47.658;9.166;2023-04-06T06:32:09;0.30;;;0.30;;
6495;SDS011;3281;47.658;9.166;2023-04-06T06:34:36;0.30;;;0.30;;
6495;SDS011;3281;47.658;9.166;2023-04-06T06:37:03;0.30;;;0.30;;
6495;SDS011;3281;47.658;9.166;2023-04-06T06:39:30;0.30;;;0.30;;
6495;SDS011;3281;47.658;9.166;2023-04-06T06:41:56;0.30;;;0.30;;
6495;SDS011;3281;47.658;9.166;2023-04-06T06:44:25;0.20;;;0.20;;
6495;SDS011;3281;47.658;9.166;2023-04-06T06:46:52;0.20;;;0.20;;
6495;SDS011;3281;47.658;9.166;2023-04-06T06:49:20;0.20;;;0.20;;
6495;SDS011;3281;47.658;9.166;2023-04-06T06:51:47;0.30;;;0.30;;
6495;SDS011;3281;47.658;9.166;2023-04-06T06:54:14;0.20;;;0.20;;
6495;SDS011;3281;47.658;9.166;2023-04-06T06:56:41;0.20;;;0.20;;
6495;SDS011;3281;47.658;9.166;2023-04-06T06:59:07;0.30;;;0.30;;
6495;SDS011;3281;47.658;9.166;2023-04-06T07:01:36;0.20;;;0.20;;
6495;SDS011;3281;47.658;9.166;2023-04-06T07:04:03;0.30;;;0.30;;
6495;SDS011;3281;47.658;9.166;2023-04-06T07:06:31;0.30;;;0.30;;
6495;SDS011;3281;47.658;9.166;2023-04-06T07:08:58;0.20;;;0.20;;
6495;SDS011;3281;47.658;9.166;2023-04-06T07:11:25;0.30;;;0.30;;
6495;SDS011;3281;47.658;9.166;2023-04-06T07:13:52;0.20;;;0.20;;
6495;SDS011;3281;47.658;9.166;2023-04-06T07:16:18;0.20;;;0.20;;
6495;SDS011;3281;47.658;9.166;2023-04-06T07:18:45;0.20;;;0.20;;
6495;SDS011;3281;47.658;9.166;2023-04-06T07:21:12;0.20;;;0.20;;
6495;SDS011;3281;47.658;9.166;2023-04-06T07:23:40;0.20;;;0.20;;
6495;SDS011;3281;47.658;9.166;2023-04-06T07:26:07;0.20;;;0.20;;
6495;SDS011;3281;47.658;9.166;2023-04-06T07:28:34;0.20;;;0.20;;
6495;SDS011;3281;47.658;9.166;2023-04-06T07:31:01;0.20;;;0.20;;
6495;SDS011;3281;47.658;9.166;2023-04-06T07:33:27;0.20;;;0.20;;
6495;SDS011;3281;47.658;9.166;2023-04-06T07:35:55;0.17;;;0.17;;
6495;SDS011;3281;47.658;9.166;2023-04-06T07:38:23;0.20;;;0.20;;
6495;SDS011;3281;47.658;9.166;2023-04-06T07:40:51;0.20;;;0.20;;
6495;SDS011;3281;47.658;9.166;2023-04-06T07:43:18;0.20;;;0.20;;
6495;SDS011;3281;47.658;9.166;2023-04-06T07:45:45;0.20;;;0.20;;
6495;SDS011;3281;47.658;9.166;2023-04-06T07:48:12;0.20;;;0.20;;
6495;SDS011;3281;47.658;9.166;2023-04-06T07:50:38;0.10;;;0.10;;
6495;SDS011;3281;47.658;9.166;2023-04-06T07:53:05;0.20;;;0.20;;
6495;SDS011;3281;47.658;9.166;2023-04-06T07:55:32;0.20;;;0.20;;
6495;SDS011;3281;47.658;9.166;2023-04-06T07:58:00;0.20;;;0.20;;
6495;SDS011;3281;47.658;9.166;2023-04-06T08:00:27;0.20;;;0.20;;
6495;SDS011;3281;47.658;9.166;2023-04-06T08:02:54;0.20;;;0.20;;
6495;SDS011;3281;47.658;9.166;2023-04-06T08:05:21;0.20;;;0.20;;
6495;SDS011;3281;47.658;9.166;2023-04-06T08:07:48;0.20;;;0.20;;
6495;SDS011;3281;47.658;9.166;2023-04-06T08:10:15;0.20;;;0.20;;
6495;SDS011;3281;47.658;9.166;2023-04-06T08:12:42;0.20;;;0.20;;
6495;SDS011;3281;47.658;9.166;2023-04-06T08:15:10;0.20;;;0.20;;
6495;SDS011;3281;47.658;9.166;2023-04-06T08:17:37;0.20;;;0.20;;
6495;SDS011;3281;47.658;9.166;2023-04-06T08:20:04;0.20;;;0.20;;
6495;SDS011;3281;47.658;9.166;2023-04-06T08:22:31;0.20;;;0.20;;
6495;SDS011;3281;47.658;9.166;2023-04-06T08:24:58;0.20;;;0.20;;
6495;SDS011;3281;47.658;9.166;2023-04-06T08:27:25;0.20;;;0.20;;
6495;SDS011;3281;47.658;9.166;2023-04-06T08:29:52;0.20;;;0.20;;
6495;SDS011;3281;47.658;9.166;2023-04-06T08:32:20;0.10;;;0.10;;
6495;SDS011;3281;47.658;9.166;2023-04-06T08:34:47;0.20;;;0.20;;
6495;SDS011;3281;47.658;9.166;2023-04-06T08:37:13;0.20;;;0.20;;
6495;SDS011;3281;47.658;9.166;2023-04-06T08:39:40;0.10;;;0.10;;
6495;SDS011;3281;47.658;9.166;2023-04-06T08:42:10;0.20;;;0.20;;
6495;SDS011;3281;47.658;9.166;2023-04-06T08:44:42;0.10;;;0.10;;
6495;SDS011;3281;47.658;9.166;2023-04-06T08:47:10;0.20;;;0.20;;
6495;SDS011;3281;47.658;9.166;2023-04-06T08:49:39;0.20;;;0.20;;
6495;SDS011;3281;47.658;9.166;2023-04-06T08:52:08;0.10;;;0.10;;
6495;SDS011;3281;47.658;9.166;2023-04-06T08:54:37;0.20;;;0.20;;
6495;SDS011;3281;47.658;9.166;2023-04-06T08:57:04;0.20;;;0.20;;
6495;SDS011;3281;47.658;9.166;2023-04-06T08:59:31;0.17;;;0.17;;
6495;SDS011;3281;47.658;9.166;2023-04-06T09:01:58;0.20;;;0.20;;
6495;SDS011;3281;47.658;9.166;2023-04-06T09:04:28;0.10;;;0.10;;
6495;SDS011;3281;47.658;9.166;2023-04-06T09:06:56;0.20;;;0.20;;
6495;SDS011;3281;47.658;9.166;2023-04-06T09:09:23;0.10;;;0.10;;
6495;SDS011;3281;47.658;9.166;2023-04-06T09:11:51;0.10;;;0.10;;
6495;SDS011;3281;47.658;9.166;2023-04-06T09:14:32;0.10;;;0.10;;
6495;SDS011;3281;47.658;9.166;2023-04-06T09:17:00;0.10;;;0.10;;
6495;SDS011;3281;47.658;9.166;2023-04-06T09:19:27;0.20;;;0.20;;
6495;SDS011;3281;47.658;9.166;2023-04-06T09:22:02;0.20;;;0.20;;
6495;SDS011;3281;47.658;9.166;2023-04-06T09:24:39;0.20;;;0.20;;
6495;SDS011;3281;47.658;9.166;2023-04-06T09:27:06;0.10;;;0.10;;
6495;SDS011;3281;47.658;9.166;2023-04-06T09:29:33;0.10;;;0.10;;
6495;SDS011;3281;47.658;9.166;2023-04-06T09:32:02;0.10;;;0.10;;
6495;SDS011;3281;47.658;9.166;2023-04-06T09:34:30;0.10;;;0.10;;
6495;SDS011;3281;47.658;9.166;2023-04-06T09:36:57;0.10;;;0.10;;
6495;SDS011;3281;47.658;9.166;2023-04-06T09:39:25;0.10;;;0.10;;
6495;SDS011;3281;47.658;9.166;2023-04-06T09:41:53;0.10;;;0.10;;
6495;SDS011;3281;47.658;9.166;2023-04-06T09:44:20;0.00;;;0.00;;
6495;SDS011;3281;47.658;9.166;2023-04-06T09:46:48;0.00;;;0.00;;
6495;SDS011;3281;47.658;9.166;2023-04-06T09:49:15;0.00;;;0.00;;
6495;SDS011;3281;47.658;9.166;2023-04-06T09:51:44;0.00;;;0.00;;
6495;SDS011;3281;47.658;9.166;2023-04-06T09:54:15;0.00;;;0.00;;
6495;SDS011;3281;47.658;9.166;2023-04-06T09:56:47;0.00;;;0.00;;
6495;SDS011;3281;47.658;9.166;2023-04-06T09:59:18;0.00;;;0.00;;
6495;SDS011;3281;47.658;9.166;2023-04-06T10:01:51;0.00;;;0.00;;
6495;SDS011;3281;47.658;9.166;2023-04-06T10:04:21;0.00;;;0.00;;
6495;SDS011;3281;47.658;9.166;2023-04-06T10:06:58;0.00;;;0.00;;
6495;SDS011;3281;47.658;9.166;2023-04-06T10:09:28;0.00;;;0.00;;
6495;SDS011;3281;47.658;9.166;2023-04-06T10:12:01;0.00;;;0.00;;
6495;SDS011;3281;47.658;9.166;2023-04-06T10:14:29;0.00;;;0.00;;
6495;SDS011;3281;47.658;9.166;2023-04-06T10:16:58;0.00;;;0.00;;
6495;SDS011;3281;47.658;9.166;2023-04-06T10:19:26;0.00;;;0.00;;
6495;SDS011;3281;47.658;9.166;2023-04-06T10:22:03;0.00;;;0.00;;
6495;SDS011;3281;47.658;9.166;2023-04-06T10:24:31;0.00;;;0.00;;
6495;SDS011;3281;47.658;9.166;2023-04-06T10:26:58;0.00;;;0.00;;
6495;SDS011;3281;47.658;9.166;2023-04-06T10:29:28;0.00;;;0.00;;
6495;SDS011;3281;47.658;9.166;2023-04-06T10:32:06;0.00;;;0.00;;
6495;SDS011;3281;47.658;9.166;2023-04-06T10:34:34;0.00;;;0.00;;
6495;SDS011;3281;47.658;9.166;2023-04-06T10:37:10;0.00;;;0.00;;
6495;SDS011;3281;47.658;9.166;2023-04-06T10:39:45;0.00;;;0.00;;
6495;SDS011;3281;47.658;9.166;2023-04-06T10:42:13;0.00;;;0.00;;
6495;SDS011;3281;47.658;9.166;2023-04-06T10:44:44;0.00;;;0.00;;
6495;SDS011;3281;47.658;9.166;2023-04-06T10:47:15;0.00;;;0.00;;
6495;SDS011;3281;47.658;9.166;2023-04-06T10:49:43;0.00;;;0.00;;
6495;SDS011;3281;47.658;9.166;2023-04-06T10:52:10;0.00;;;0.00;;
6495;SDS011;3281;47.658;9.166;2023-04-06T10:54:40;0.00;;;0.00;;
6495;SDS011;3281;47.658;9.166;2023-04-06T10:57:08;0.00;;;0.00;;
6495;SDS011;3281;47.658;9.166;2023-04-06T10:59:35;0.00;;;0.00;;
6495;SDS011;3281;47.658;9.166;2023-04-06T11:02:03;0.00;;;0.00;;
6495;SDS011;3281;47.658;9.166;2023-04-06T11:04:31;0.00;;;0.00;;
6495;SDS011;3281;47.658;9.166;2023-04-06T11:06:58;0.00;;;0.00;;
6495;SDS011;3281;47.658;9.166;2023-04-06T11:09:25;0.00;;;0.00;;
6495;SDS011;3281;47.658;9.166;2023-04-06T11:11:52;0.00;;;0.00;;
6495;SDS011;3281;47.658;9.166;2023-04-06T11:14:21;0.00;;;0.00;;
6495;SDS011;3281;47.658;9.166;2023-04-06T11:16:48;0.00;;;0.00;;
6495;SDS011;3281;47.658;9.166;2023-04-06T11:19:16;0.00;;;0.00;;
6495;SDS011;3281;47.658;9.166;2023-04-06T11:21:44;0.00;;;0.00;;
6495;SDS011;3281;47.658;9.166;2023-04-06T11:24:13;0.00;;;0.00;;
6495;SDS011;3281;47.658;9.166;2023-04-06T11:26:42;0.00;;;0.00;;
6495;SDS011;3281;47.658;9.166;2023-04-06T11:29:11;0.00;;;0.00;;
6495;SDS011;3281;47.658;9.166;2023-04-06T11:31:41;0.00;;;0.00;;
6495;SDS011;3281;47.658;9.166;2023-04-06T11:34:11;0.00;;;0.00;;
6495;SDS011;3281;47.658;9.166;2023-04-06T11:36:43;0.00;;;0.00;;
6495;SDS011;3281;47.658;9.166;2023-04-06T11:39:12;0.00;;;0.00;;
6495;SDS011;3281;47.658;9.166;2023-04-06T11:41:39;0.00;;;0.00;;
6495;SDS011;3281;47.658;9.166;2023-04-06T11:44:06;0.00;;;0.00;;
6495;SDS011;3281;47.658;9.166;2023-04-06T11:46:33;0.00;;;0.00;;
6495;SDS011;3281;47.658;9.166;2023-04-06T11:49:00;0.00;;;0.00;;
6495;SDS011;3281;47.658;9.166;2023-04-06T11:51:28;0.00;;;0.00;;
6495;SDS011;3281;47.658;9.166;2023-04-06T11:53:56;0.00;;;0.00;;
6495;SDS011;3281;47.658;9.166;2023-04-06T11:56:26;0.00;;;0.00;;
6495;SDS011;3281;47.658;9.166;2023-04-06T11:58:54;0.00;;;0.00;;
6495;SDS011;3281;47.658;9.166;2023-04-06T12:01:22;0.00;;;0.00;;
6495;SDS011;3281;47.658;9.166;2023-04-06T12:03:49;0.00;;;0.00;;
6495;SDS011;3281;47.658;9.166;2023-04-06T12:06:17;0.00;;;0.00;;
6495;SDS011;3281;47.658;9.166;2023-04-06T12:08:44;0.00;;;0.00;;
6495;SDS011;3281;47.658;9.166;2023-04-06T12:11:12;0.00;;;0.00;;
6495;SDS011;3281;47.658;9.166;2023-04-06T12:13:39;0.00;;;0.00;;
6495;SDS011;3281;47.658;9.166;2023-04-06T12:16:06;0.00;;;0.00;;
6495;SDS011;3281;47.658;9.166;2023-04-06T12:18:33;0.00;;;0.00;;
6495;SDS011;3281;47.658;9.166;2023-04-06T12:20:59;0.00;;;0.00;;
6495;SDS011;3281;47.658;9.166;2023-04-06T12:23:26;0.00;;;0.00;;
6495;SDS011;3281;47.658;9.166;2023-04-06T12:25:53;0.00;;;0.00;;
6495;SDS011;3281;47.658;9.166;2023-04-06T12:28:21;0.00;;;0.00;;
6495;SDS011;3281;47.658;9.166;2023-04-06T12:30:51;0.00;;;0.00;;
6495;SDS011;3281;47.658;9.166;2023-04-06T12:33:18;0.00;;;0.00;;
6495;SDS011;3281;47.658;9.166;2023-04-06T12:35:45;0.00;;;0.00;;
6495;SDS011;3281;47.658;9.166;2023-04-06T12:38:12;0.00;;;0.00;;
6495;SDS011;3281;47.658;9.166;2023-04-06T12:40:39;0.00;;;0.00;;
6495;SDS011;3281;47.658;9.166;2023-04-06T12:43:06;0.00;;;0.00;;
6495;SDS011;3281;47.658;9.166;2023-04-06T12:45:35;0.00;;;0.00;;
6495;SDS011;3281;47.658;9.166;2023-04-06T12:48:01;0.00;;;0.00;;
6495;SDS011;3281;47.658;9.166;2023-04-06T12:50:28;0.00;;;0.00;;
6495;SDS011;3281;47.658;9.166;2023-04-06T12:52:55;0.00;;;0.00;;
6495;SDS011;3281;47.658;9.166;2023-04-06T12:55:22;0.00;;;0.00;;
6495;SDS011;3281;47.658;9.166;2023-04-06T12:57:50;0.00;;;0.00;;
6495;SDS011;3281;47.658;9.166;2023-04-06T13:00:17;0.00;;;0.00;;
6495;SDS011;3281;47.658;9.166;2023-04-06T13:02:46;0.00;;;0.00;;
6495;SDS011;3281;47.658;9.166;2023-04-06T13:05:13;0.00;;;0.00;;
6495;SDS011;3281;47.658;9.166;2023-04-06T13:07:43;0.00;;;0.00;;
6495;SDS011;3281;47.658;9.166;2023-04-06T13:10:11;0.00;;;0.00;;
6495;SDS011;3281;47.658;9.166;2023-04-06T13:12:38;0.00;;;0.00;;
6495;SDS011;3281;47.658;9.166;2023-04-06T13:15:05;0.00;;;0.00;;
6495;SDS011;3281;47.658;9.166;2023-04-06T13:17:32;0.00;;;0.00;;
6495;SDS011;3281;47.658;9.166;2023-04-06T13:20:01;0.00;;;0.00;;
6495;SDS011;3281;47.658;9.166;2023-04-06T13:22:28;0.00;;;0.00;;
6495;SDS011;3281;47.658;9.166;2023-04-06T13:24:55;0.00;;;0.00;;
6495;SDS011;3281;47.658;9.166;2023-04-06T13:27:22;0.00;;;0.00;;
6495;SDS011;3281;47.658;9.166;2023-04-06T13:29:48;0.00;;;0.00;;
6495;SDS011;3281;47.658;9.166;2023-04-06T13:32:15;0.00;;;0.00;;
6495;SDS011;3281;47.658;9.166;2023-04-06T13:34:42;0.00;;;0.00;;
6495;SDS011;3281;47.658;9.166;2023-04-06T13:37:11;0.00;;;0.00;;
6495;SDS011;3281;47.658;9.166;2023-04-06T13:39:38;0.00;;;0.00;;
6495;SDS011;3281;47.658;9.166;2023-04-06T13:42:05;0.00;;;0.00;;
6495;SDS011;3281;47.658;9.166;2023-04-06T13:44:32;0.00;;;0.00;;
6495;SDS011;3281;47.658;9.166;2023-04-06T13:46:59;0.00;;;0.00;;
6495;SDS011;3281;47.658;9.166;2023-04-06T13:49:26;0.00;;;0.00;;
6495;SDS011;3281;47.658;9.166;2023-04-06T13:51:53;0.00;;;0.00;;
6495;SDS011;3281;47.658;9.166;2023-04-06T13:54:21;0.00;;;0.00;;
6495;SDS011;3281;47.658;9.166;2023-04-06T13:56:47;0.00;;;0.00;;
6495;SDS011;3281;47.658;9.166;2023-04-06T13:59:14;0.07;;;0.07;;
6495;SDS011;3281;47.658;9.166;2023-04-06T14:01:41;0.00;;;0.00;;
6495;SDS011;3281;47.658;9.166;2023-04-06T14:04:07;0.00;;;0.00;;
6495;SDS011;3281;47.658;9.166;2023-04-06T14:06:34;0.00;;;0.00;;
6495;SDS011;3281;47.658;9.166;2023-04-06T14:09:02;0.10;;;0.10;;
6495;SDS011;3281;47.658;9.166;2023-04-06T14:11:30;0.00;;;0.00;;
6495;SDS011;3281;47.658;9.166;2023-04-06T14:13:57;0.10;;;0.10;;
6495;SDS011;3281;47.658;9.166;2023-04-06T14:16:25;0.00;;;0.00;;
6495;SDS011;3281;47.658;9.166;2023-04-06T14:18:51;0.00;;;0.00;;
6495;SDS011;3281;47.658;9.166;2023-04-06T14:21:18;0.10;;;0.10;;
6495;SDS011;3281;47.658;9.166;2023-04-06T14:23:45;0.00;;;0.00;;
6495;SDS011;3281;47.658;9.166;2023-04-06T14:26:12;0.10;;;0.10;;
6495;SDS011;3281;47.658;9.166;2023-04-06T14:28:40;0.00;;;0.00;;
6495;SDS011;3281;47.658;9.166;2023-04-06T14:31:09;0.00;;;0.00;;
6495;SDS011;3281;47.658;9.166;2023-04-06T14:33:38;0.00;;;0.00;;
6495;SDS011;3281;47.658;9.166;2023-04-06T14:36:05;0.00;;;0.00;;
6495;SDS011;3281;47.658;9.166;2023-04-06T14:38:32;0.00;;;0.00;;
6495;SDS011;3281;47.658;9.166;2023-04-06T14:41:00;0.00;;;0.00;;
6495;SDS011;3281;47.658;9.166;2023-04-06T14:43:27;0.00;;;0.00;;
6495;SDS011;3281;47.658;9.166;2023-04-06T14:45:59;0.00;;;0.00;;
6495;SDS011;3281;47.658;9.166;2023-04-06T14:48:26;0.00;;;0.00;;
6495;SDS011;3281;47.658;9.166;2023-04-06T14:50:52;0.00;;;0.00;;
6495;SDS011;3281;47.658;9.166;2023-04-06T14:53:20;0.00;;;0.00;;
6495;SDS011;3281;47.658;9.166;2023-04-06T14:55:46;0.10;;;0.10;;
6495;SDS011;3281;47.658;9.166;2023-04-06T14:58:14;0.10;;;0.10;;
6495;SDS011;3281;47.658;9.166;2023-04-06T15:00:41;0.10;;;0.10;;
6495;SDS011;3281;47.658;9.166;2023-04-06T15:03:09;0.00;;;0.00;;
6495;SDS011;3281;47.658;9.166;2023-04-06T15:05:36;0.00;;;0.00;;
6495;SDS011;3281;47.658;9.166;2023-04-06T15:08:03;0.10;;;0.10;;
6495;SDS011;3281;47.658;9.166;2023-04-06T15:10:30;0.00;;;0.00;;
6495;SDS011;3281;47.658;9.166;2023-04-06T15:12:57;0.00;;;0.00;;
6495;SDS011;3281;47.658;9.166;2023-04-06T15:15:24;0.00;;;0.00;;
6495;SDS011;3281;47.658;9.166;2023-04-06T15:17:50;0.10;;;0.10;;